sensor_id;sensor_type;location;lat;lon;timestamp;temperature;humidity
23703;DHT22;12030;50.376;8.762;2023-09-30T00:02:12;15.70;99.90
23703;DHT22;12030;50.376;8.762;2023-09-30T00:04:38;15.70;99.90
23703;DHT22;12030;50.376;8.762;2023-09-30T00:07:04;15.70;99.90
23703;DHT22;12030;50.376;8.762;2023-09-30T00:09:30;15.70;99.90
23703;DHT22;12030;50.376;8.762;2023-09-30T00:11:56;15.80;99.90
23703;DHT22;12030;50.376;8.762;2023-09-30T00:14:21;15.70;99.90
23703;DHT22;12030;50.376;8.762;2023-09-30T00:16:47;15.80;99.90
23703;DHT22;12030;50.376;8.762;2023-09-30T00:19:12;15.70;99.90
23703;DHT22;12030;50.376;8.762;2023-09-30T00:21:39;15.80;99.90
23703;DHT22;12030;50.376;8.762;2023-09-30T00:24:04;15.70;99.90
23703;DHT22;12030;50.376;8.762;2023-09-30T00:26:30;15.70;99.90
23703;DHT22;12030;50.376;8.762;2023-09-30T00:28:55;15.70;99.90
23703;DHT22;12030;50.376;8.762;2023-09-30T00:31:21;15.70;99.90
23703;DHT22;12030;50.376;8.762;2023-09-30T00:33:47;15.70;99.90
23703;DHT22;12030;50.376;8.762;2023-09-30T00:36:13;15.70;99.90
23703;DHT22;12030;50.376;8.762;2023-09-30T00:38:39;15.60;99.90
23703;DHT22;12030;50.376;8.762;2023-09-30T00:41:05;15.60;99.90
23703;DHT22;12030;50.376;8.762;2023-09-30T00:43:32;15.60;99.90
23703;DHT22;12030;50.376;8.762;2023-09-30T00:48:48;15.60;99.90
23703;DHT22;12030;50.376;8.762;2023-09-30T00:51:14;15.60;99.90
23703;DHT22;12030;50.376;8.762;2023-09-30T00:53:40;15.60;99.90
23703;DHT22;12030;50.376;8.762;2023-09-30T00:56:06;15.60;99.90
23703;DHT22;12030;50.376;8.762;2023-09-30T00:58:34;15.60;99.90
23703;DHT22;12030;50.376;8.762;2023-09-30T01:01:00;15.60;99.90
23703;DHT22;12030;50.376;8.762;2023-09-30T01:03:26;15.60;99.90
23703;DHT22;12030;50.376;8.762;2023-09-30T01:05:51;15.50;99.90
23703;DHT22;12030;50.376;8.762;2023-09-30T01:08:18;15.50;99.90
23703;DHT22;12030;50.376;8.762;2023-09-30T01:10:45;15.50;99.90
23703;DHT22;12030;50.376;8.762;2023-09-30T01:13:11;15.50;99.90
23703;DHT22;12030;50.376;8.762;2023-09-30T01:15:36;15.40;99.90
23703;DHT22;12030;50.376;8.762;2023-09-30T01:18:03;15.40;99.90
23703;DHT22;12030;50.376;8.762;2023-09-30T01:20:28;15.40;99.90
23703;DHT22;12030;50.376;8.762;2023-09-30T01:22:56;15.40;99.90
23703;DHT22;12030;50.376;8.762;2023-09-30T01:25:22;15.40;99.90
23703;DHT22;12030;50.376;8.762;2023-09-30T01:27:47;15.40;99.90
23703;DHT22;12030;50.376;8.762;2023-09-30T01:30:13;15.30;99.90
23703;DHT22;12030;50.376;8.762;2023-09-30T01:32:39;15.30;99.90
23703;DHT22;12030;50.376;8.762;2023-09-30T01:35:05;15.30;99.90
23703;DHT22;12030;50.376;8.762;2023-09-30T01:37:31;15.30;99.90
23703;DHT22;12030;50.376;8.762;2023-09-30T01:39:57;15.30;99.90
23703;DHT22;12030;50.376;8.762;2023-09-30T01:42:22;15.20;99.90
23703;DHT22;12030;50.376;8.762;2023-09-30T01:44:48;15.20;99.90
23703;DHT22;12030;50.376;8.762;2023-09-30T01:47:13;15.20;99.90
23703;DHT22;12030;50.376;8.762;2023-09-30T01:49:39;15.20;99.90
23703;DHT22;12030;50.376;8.762;2023-09-30T01:52:04;15.10;99.90
23703;DHT22;12030;50.376;8.762;2023-09-30T01:54:30;15.10;99.90
23703;DHT22;12030;50.376;8.762;2023-09-30T01:56:55;15.10;99.90
23703;DHT22;12030;50.376;8.762;2023-09-30T01:59:21;15.10;99.90
23703;DHT22;12030;50.376;8.762;2023-09-30T02:01:47;15.10;99.90
23703;DHT22;12030;50.376;8.762;2023-09-30T02:04:14;15.10;99.90
23703;DHT22;12030;50.376;8.762;2023-09-30T02:06:41;15.10;99.90
23703;DHT22;12030;50.376;8.762;2023-09-30T02:09:06;15.00;99.90
23703;DHT22;12030;50.376;8.762;2023-09-30T02:11:37;15.10;99.90
23703;DHT22;12030;50.376;8.762;2023-09-30T02:14:03;15.10;99.90
23703;DHT22;12030;50.376;8.762;2023-09-30T02:16:29;15.10;99.90
23703;DHT22;12030;50.376;8.762;2023-09-30T02:18:55;15.10;99.90
23703;DHT22;12030;50.376;8.762;2023-09-30T02:21:21;15.10;99.90
23703;DHT22;12030;50.376;8.762;2023-09-30T02:23:47;15.00;99.90
23703;DHT22;12030;50.376;8.762;2023-09-30T02:26:16;15.10;99.90
23703;DHT22;12030;50.376;8.762;2023-09-30T02:28:43;15.10;99.90
23703;DHT22;12030;50.376;8.762;2023-09-30T02:31:08;15.10;99.90
23703;DHT22;12030;50.376;8.762;2023-09-30T02:33:34;15.10;99.90
23703;DHT22;12030;50.376;8.762;2023-09-30T02:36:07;15.00;99.90
23703;DHT22;12030;50.376;8.762;2023-09-30T02:38:32;15.10;99.90
23703;DHT22;12030;50.376;8.762;2023-09-30T02:40:58;15.10;99.90
23703;DHT22;12030;50.376;8.762;2023-09-30T02:43:23;15.00;99.90
23703;DHT22;12030;50.376;8.762;2023-09-30T02:45:49;15.00;99.90
23703;DHT22;12030;50.376;8.762;2023-09-30T02:48:15;15.00;99.90
23703;DHT22;12030;50.376;8.762;2023-09-30T02:50:44;15.00;99.90
23703;DHT22;12030;50.376;8.762;2023-09-30T02:53:10;15.00;99.90
23703;DHT22;12030;50.376;8.762;2023-09-30T02:55:38;15.00;99.90
23703;DHT22;12030;50.376;8.762;2023-09-30T02:58:03;15.00;99.90
23703;DHT22;12030;50.376;8.762;2023-09-30T03:00:29;15.00;99.90
23703;DHT22;12030;50.376;8.762;2023-09-30T03:02:59;15.00;99.90
23703;DHT22;12030;50.376;8.762;2023-09-30T03:05:25;14.90;99.90
23703;DHT22;12030;50.376;8.762;2023-09-30T03:07:52;14.80;99.90
23703;DHT22;12030;50.376;8.762;2023-09-30T03:10:18;14.80;99.90
23703;DHT22;12030;50.376;8.762;2023-09-30T03:12:46;14.80;99.90
23703;DHT22;12030;50.376;8.762;2023-09-30T03:15:13;14.70;99.90
23703;DHT22;12030;50.376;8.762;2023-09-30T03:17:38;14.70;99.90
23703;DHT22;12030;50.376;8.762;2023-09-30T03:20:04;14.70;99.90
23703;DHT22;12030;50.376;8.762;2023-09-30T03:22:43;14.60;99.90
23703;DHT22;12030;50.376;8.762;2023-09-30T03:25:10;14.60;99.90
23703;DHT22;12030;50.376;8.762;2023-09-30T03:27:37;14.60;99.90
23703;DHT22;12030;50.376;8.762;2023-09-30T03:30:04;14.40;99.90
23703;DHT22;12030;50.376;8.762;2023-09-30T03:32:31;14.40;99.90
23703;DHT22;12030;50.376;8.762;2023-09-30T03:34:58;14.30;99.90
23703;DHT22;12030;50.376;8.762;2023-09-30T03:37:26;14.30;99.90
23703;DHT22;12030;50.376;8.762;2023-09-30T03:39:54;14.30;99.90
23703;DHT22;12030;50.376;8.762;2023-09-30T03:42:19;14.30;99.90
23703;DHT22;12030;50.376;8.762;2023-09-30T03:44:45;14.30;99.90
23703;DHT22;12030;50.376;8.762;2023-09-30T03:47:11;14.40;99.90
23703;DHT22;12030;50.376;8.762;2023-09-30T03:49:36;14.30;99.90
23703;DHT22;12030;50.376;8.762;2023-09-30T03:52:04;14.30;99.90
23703;DHT22;12030;50.376;8.762;2023-09-30T03:54:29;14.30;99.90
23703;DHT22;12030;50.376;8.762;2023-09-30T03:56:55;14.30;99.90
23703;DHT22;12030;50.376;8.762;2023-09-30T03:59:20;14.30;99.90
23703;DHT22;12030;50.376;8.762;2023-09-30T04:01:46;14.30;99.90
23703;DHT22;12030;50.376;8.762;2023-09-30T04:04:12;14.30;99.90
23703;DHT22;12030;50.376;8.762;2023-09-30T04:06:38;14.20;99.90
23703;DHT22;12030;50.376;8.762;2023-09-30T04:09:07;14.20;99.90
23703;DHT22;12030;50.376;8.762;2023-09-30T04:11:36;14.10;99.90
23703;DHT22;12030;50.376;8.762;2023-09-30T04:14:03;14.10;99.90
23703;DHT22;12030;50.376;8.762;2023-09-30T04:16:29;14.00;99.90
23703;DHT22;12030;50.376;8.762;2023-09-30T04:18:55;14.00;99.90
23703;DHT22;12030;50.376;8.762;2023-09-30T04:21:21;14.00;99.90
23703;DHT22;12030;50.376;8.762;2023-09-30T04:23:46;13.90;99.90
23703;DHT22;12030;50.376;8.762;2023-09-30T04:26:12;13.90;99.90
23703;DHT22;12030;50.376;8.762;2023-09-30T04:28:38;13.90;99.90
23703;DHT22;12030;50.376;8.762;2023-09-30T04:31:03;13.90;99.90
23703;DHT22;12030;50.376;8.762;2023-09-30T04:33:30;13.80;99.90
23703;DHT22;12030;50.376;8.762;2023-09-30T04:35:55;13.70;99.90
23703;DHT22;12030;50.376;8.762;2023-09-30T04:38:21;13.60;99.90
23703;DHT22;12030;50.376;8.762;2023-09-30T04:40:46;13.60;99.90
23703;DHT22;12030;50.376;8.762;2023-09-30T04:43:16;13.60;99.90
23703;DHT22;12030;50.376;8.762;2023-09-30T04:45:42;13.60;99.90
23703;DHT22;12030;50.376;8.762;2023-09-30T04:48:08;13.40;99.90
23703;DHT22;12030;50.376;8.762;2023-09-30T04:50:33;13.40;99.90
23703;DHT22;12030;50.376;8.762;2023-09-30T04:52:59;13.30;99.90
23703;DHT22;12030;50.376;8.762;2023-09-30T04:55:25;13.30;99.90
23703;DHT22;12030;50.376;8.762;2023-09-30T04:57:51;13.20;99.90
23703;DHT22;12030;50.376;8.762;2023-09-30T05:00:19;13.10;99.90
23703;DHT22;12030;50.376;8.762;2023-09-30T05:02:47;13.00;99.90
23703;DHT22;12030;50.376;8.762;2023-09-30T05:05:13;13.00;99.90
23703;DHT22;12030;50.376;8.762;2023-09-30T05:07:40;12.90;99.90
23703;DHT22;12030;50.376;8.762;2023-09-30T05:10:07;12.80;99.90
23703;DHT22;12030;50.376;8.762;2023-09-30T05:12:37;12.70;99.90
23703;DHT22;12030;50.376;8.762;2023-09-30T05:15:03;12.70;99.90
23703;DHT22;12030;50.376;8.762;2023-09-30T05:17:31;12.70;99.90
23703;DHT22;12030;50.376;8.762;2023-09-30T05:19:57;12.60;99.90
23703;DHT22;12030;50.376;8.762;2023-09-30T05:22:23;12.60;99.90
23703;DHT22;12030;50.376;8.762;2023-09-30T05:24:52;12.50;99.90
23703;DHT22;12030;50.376;8.762;2023-09-30T05:27:19;12.60;99.90
23703;DHT22;12030;50.376;8.762;2023-09-30T05:29:44;12.50;99.90
23703;DHT22;12030;50.376;8.762;2023-09-30T05:32:10;12.50;99.90
23703;DHT22;12030;50.376;8.762;2023-09-30T05:34:36;12.40;99.90
23703;DHT22;12030;50.376;8.762;2023-09-30T05:37:02;12.40;99.90
23703;DHT22;12030;50.376;8.762;2023-09-30T05:39:28;12.30;99.90
23703;DHT22;12030;50.376;8.762;2023-09-30T05:41:54;12.30;99.90
23703;DHT22;12030;50.376;8.762;2023-09-30T05:44:20;12.20;99.90
23703;DHT22;12030;50.376;8.762;2023-09-30T05:46:47;12.20;99.90
23703;DHT22;12030;50.376;8.762;2023-09-30T05:49:12;12.10;99.90
23703;DHT22;12030;50.376;8.762;2023-09-30T05:51:40;12.10;99.90
23703;DHT22;12030;50.376;8.762;2023-09-30T05:54:07;12.00;99.90
23703;DHT22;12030;50.376;8.762;2023-09-30T05:56:36;12.00;99.90
23703;DHT22;12030;50.376;8.762;2023-09-30T05:59:02;12.00;99.90
23703;DHT22;12030;50.376;8.762;2023-09-30T06:01:28;12.00;99.90
23703;DHT22;12030;50.376;8.762;2023-09-30T06:03:53;12.00;99.90
23703;DHT22;12030;50.376;8.762;2023-09-30T06:06:20;12.00;99.90
23703;DHT22;12030;50.376;8.762;2023-09-30T06:08:45;12.00;99.90
23703;DHT22;12030;50.376;8.762;2023-09-30T06:11:18;12.00;99.90
23703;DHT22;12030;50.376;8.762;2023-09-30T06:13:47;12.00;99.90
23703;DHT22;12030;50.376;8.762;2023-09-30T06:16:13;12.10;99.90
23703;DHT22;12030;50.376;8.762;2023-09-30T06:18:39;12.10;99.90
23703;DHT22;12030;50.376;8.762;2023-09-30T06:21:04;12.10;99.90
23703;DHT22;12030;50.376;8.762;2023-09-30T06:23:30;12.20;99.90
23703;DHT22;12030;50.376;8.762;2023-09-30T06:25:56;12.30;99.90
23703;DHT22;12030;50.376;8.762;2023-09-30T06:28:22;12.40;99.90
23703;DHT22;12030;50.376;8.762;2023-09-30T06:30:52;12.50;99.90
23703;DHT22;12030;50.376;8.762;2023-09-30T06:33:17;12.50;99.90
23703;DHT22;12030;50.376;8.762;2023-09-30T06:35:43;12.60;99.90
23703;DHT22;12030;50.376;8.762;2023-09-30T06:38:17;12.60;99.90
23703;DHT22;12030;50.376;8.762;2023-09-30T06:40:43;12.70;99.90
23703;DHT22;12030;50.376;8.762;2023-09-30T06:43:10;12.70;99.90
23703;DHT22;12030;50.376;8.762;2023-09-30T06:45:36;12.70;99.90
23703;DHT22;12030;50.376;8.762;2023-09-30T06:48:07;12.80;99.90
23703;DHT22;12030;50.376;8.762;2023-09-30T06:50:32;12.80;99.90
23703;DHT22;12030;50.376;8.762;2023-09-30T06:52:58;12.80;99.90
23703;DHT22;12030;50.376;8.762;2023-09-30T06:55:24;12.90;99.90
23703;DHT22;12030;50.376;8.762;2023-09-30T06:57:52;12.90;99.90
23703;DHT22;12030;50.376;8.762;2023-09-30T07:00:18;13.00;99.90
23703;DHT22;12030;50.376;8.762;2023-09-30T07:02:43;13.00;99.90
23703;DHT22;12030;50.376;8.762;2023-09-30T07:05:14;13.10;99.90
23703;DHT22;12030;50.376;8.762;2023-09-30T07:07:40;13.10;99.90
23703;DHT22;12030;50.376;8.762;2023-09-30T07:10:07;13.20;99.90
23703;DHT22;12030;50.376;8.762;2023-09-30T07:12:33;13.20;99.90
23703;DHT22;12030;50.376;8.762;2023-09-30T07:15:01;13.30;99.90
23703;DHT22;12030;50.376;8.762;2023-09-30T07:17:28;13.40;99.90
23703;DHT22;12030;50.376;8.762;2023-09-30T07:19:53;13.40;99.90
23703;DHT22;12030;50.376;8.762;2023-09-30T07:22:19;13.50;99.90
23703;DHT22;12030;50.376;8.762;2023-09-30T07:24:44;13.60;99.90
23703;DHT22;12030;50.376;8.762;2023-09-30T07:27:10;13.70;99.90
23703;DHT22;12030;50.376;8.762;2023-09-30T07:29:37;13.70;99.90
23703;DHT22;12030;50.376;8.762;2023-09-30T07:32:02;13.80;99.90
23703;DHT22;12030;50.376;8.762;2023-09-30T07:34:28;13.90;99.90
23703;DHT22;12030;50.376;8.762;2023-09-30T07:36:53;13.90;99.90
23703;DHT22;12030;50.376;8.762;2023-09-30T07:39:20;14.00;99.90
23703;DHT22;12030;50.376;8.762;2023-09-30T07:41:46;14.00;99.90
23703;DHT22;12030;50.376;8.762;2023-09-30T07:44:12;14.10;99.90
23703;DHT22;12030;50.376;8.762;2023-09-30T07:46:37;14.10;99.90
23703;DHT22;12030;50.376;8.762;2023-09-30T07:49:03;14.20;99.90
23703;DHT22;12030;50.376;8.762;2023-09-30T07:51:29;14.20;99.90
23703;DHT22;12030;50.376;8.762;2023-09-30T07:53:55;14.30;99.90
23703;DHT22;12030;50.376;8.762;2023-09-30T07:56:21;14.30;99.90
23703;DHT22;12030;50.376;8.762;2023-09-30T07:58:48;14.40;99.90
23703;DHT22;12030;50.376;8.762;2023-09-30T08:01:14;14.40;99.90
23703;DHT22;12030;50.376;8.762;2023-09-30T08:03:40;14.50;99.90
23703;DHT22;12030;50.376;8.762;2023-09-30T08:06:07;14.60;99.90
23703;DHT22;12030;50.376;8.762;2023-09-30T08:08:34;14.60;99.90
23703;DHT22;12030;50.376;8.762;2023-09-30T08:11:00;14.70;99.90
23703;DHT22;12030;50.376;8.762;2023-09-30T08:13:26;14.70;99.90
23703;DHT22;12030;50.376;8.762;2023-09-30T08:15:51;14.70;99.90
23703;DHT22;12030;50.376;8.762;2023-09-30T08:18:18;14.80;99.90
23703;DHT22;12030;50.376;8.762;2023-09-30T08:20:44;14.80;99.90
23703;DHT22;12030;50.376;8.762;2023-09-30T08:23:10;14.90;99.90
23703;DHT22;12030;50.376;8.762;2023-09-30T08:25:37;14.90;99.90
23703;DHT22;12030;50.376;8.762;2023-09-30T08:28:03;15.00;99.90
23703;DHT22;12030;50.376;8.762;2023-09-30T08:30:29;15.00;99.90
23703;DHT22;12030;50.376;8.762;2023-09-30T08:32:55;15.00;99.90
23703;DHT22;12030;50.376;8.762;2023-09-30T08:35:20;15.10;99.90
23703;DHT22;12030;50.376;8.762;2023-09-30T08:37:46;15.10;99.90
23703;DHT22;12030;50.376;8.762;2023-09-30T08:40:11;15.10;99.90
23703;DHT22;12030;50.376;8.762;2023-09-30T08:42:38;15.20;99.90
23703;DHT22;12030;50.376;8.762;2023-09-30T08:45:05;15.30;99.90
23703;DHT22;12030;50.376;8.762;2023-09-30T08:47:33;15.30;99.90
23703;DHT22;12030;50.376;8.762;2023-09-30T08:50:03;15.50;99.90
23703;DHT22;12030;50.376;8.762;2023-09-30T08:52:32;15.50;99.90
23703;DHT22;12030;50.376;8.762;2023-09-30T08:54:58;15.60;99.90
23703;DHT22;12030;50.376;8.762;2023-09-30T08:57:24;15.60;99.90
23703;DHT22;12030;50.376;8.762;2023-09-30T08:59:52;15.70;99.90
23703;DHT22;12030;50.376;8.762;2023-09-30T09:02:18;15.70;99.90
23703;DHT22;12030;50.376;8.762;2023-09-30T09:04:45;15.70;99.90
23703;DHT22;12030;50.376;8.762;2023-09-30T09:07:11;15.60;99.90
23703;DHT22;12030;50.376;8.762;2023-09-30T09:09:36;15.60;99.90
23703;DHT22;12030;50.376;8.762;2023-09-30T09:12:02;15.60;99.90
23703;DHT22;12030;50.376;8.762;2023-09-30T09:14:41;15.50;99.90
23703;DHT22;12030;50.376;8.762;2023-09-30T09:17:10;15.60;99.90
23703;DHT22;12030;50.376;8.762;2023-09-30T09:19:35;15.60;99.90
23703;DHT22;12030;50.376;8.762;2023-09-30T09:22:02;15.70;99.90
23703;DHT22;12030;50.376;8.762;2023-09-30T09:24:33;15.80;99.90
23703;DHT22;12030;50.376;8.762;2023-09-30T09:27:10;15.90;99.90
23703;DHT22;12030;50.376;8.762;2023-09-30T09:29:37;15.90;99.90
23703;DHT22;12030;50.376;8.762;2023-09-30T09:34:35;16.10;99.90
23703;DHT22;12030;50.376;8.762;2023-09-30T09:37:19;16.10;99.90
23703;DHT22;12030;50.376;8.762;2023-09-30T09:39:56;16.10;99.90
23703;DHT22;12030;50.376;8.762;2023-09-30T09:42:26;16.20;99.90
23703;DHT22;12030;50.376;8.762;2023-09-30T09:44:59;16.20;99.90
23703;DHT22;12030;50.376;8.762;2023-09-30T09:47:25;16.30;99.90
23703;DHT22;12030;50.376;8.762;2023-09-30T09:49:51;16.30;99.90
23703;DHT22;12030;50.376;8.762;2023-09-30T09:52:19;16.30;99.90
23703;DHT22;12030;50.376;8.762;2023-09-30T09:54:45;16.40;99.90
23703;DHT22;12030;50.376;8.762;2023-09-30T09:57:11;16.40;99.90
23703;DHT22;12030;50.376;8.762;2023-09-30T09:59:38;16.50;99.90
23703;DHT22;12030;50.376;8.762;2023-09-30T10:02:10;16.60;99.90
23703;DHT22;12030;50.376;8.762;2023-09-30T10:04:37;16.70;99.90
23703;DHT22;12030;50.376;8.762;2023-09-30T10:07:04;16.80;99.90
23703;DHT22;12030;50.376;8.762;2023-09-30T10:09:33;16.70;99.90
23703;DHT22;12030;50.376;8.762;2023-09-30T10:12:00;16.80;99.90
23703;DHT22;12030;50.376;8.762;2023-09-30T10:14:31;16.90;99.90
23703;DHT22;12030;50.376;8.762;2023-09-30T10:17:01;16.90;99.90
23703;DHT22;12030;50.376;8.762;2023-09-30T10:19:28;17.00;99.90
23703;DHT22;12030;50.376;8.762;2023-09-30T10:24:55;17.10;99.90
23703;DHT22;12030;50.376;8.762;2023-09-30T10:27:28;17.10;99.90
23703;DHT22;12030;50.376;8.762;2023-09-30T10:32:23;17.20;99.90
23703;DHT22;12030;50.376;8.762;2023-09-30T10:34:49;17.30;99.90
23703;DHT22;12030;50.376;8.762;2023-09-30T10:37:24;17.40;99.90
23703;DHT22;12030;50.376;8.762;2023-09-30T10:39:57;17.40;99.90
23703;DHT22;12030;50.376;8.762;2023-09-30T10:50:55;17.60;99.90
23703;DHT22;12030;50.376;8.762;2023-09-30T10:53:22;17.60;99.90
23703;DHT22;12030;50.376;8.762;2023-09-30T10:55:56;17.70;99.90
23703;DHT22;12030;50.376;8.762;2023-09-30T10:58:21;17.80;99.90
23703;DHT22;12030;50.376;8.762;2023-09-30T11:00:54;17.80;99.90
23703;DHT22;12030;50.376;8.762;2023-09-30T11:03:22;17.80;99.90
23703;DHT22;12030;50.376;8.762;2023-09-30T11:05:51;17.80;99.90
23703;DHT22;12030;50.376;8.762;2023-09-30T11:08:21;17.90;99.90
23703;DHT22;12030;50.376;8.762;2023-09-30T11:10:51;18.00;99.90
23703;DHT22;12030;50.376;8.762;2023-09-30T11:13:17;18.00;99.90
23703;DHT22;12030;50.376;8.762;2023-09-30T11:15:44;18.00;99.90
23703;DHT22;12030;50.376;8.762;2023-09-30T11:18:17;18.10;99.90
23703;DHT22;12030;50.376;8.762;2023-09-30T11:20:44;18.10;99.90
23703;DHT22;12030;50.376;8.762;2023-09-30T11:23:13;18.20;99.90
23703;DHT22;12030;50.376;8.762;2023-09-30T11:25:41;18.20;99.90
23703;DHT22;12030;50.376;8.762;2023-09-30T11:28:17;18.30;99.90
23703;DHT22;12030;50.376;8.762;2023-09-30T11:30:58;18.30;99.90
23703;DHT22;12030;50.376;8.762;2023-09-30T11:33:24;18.30;99.90
23703;DHT22;12030;50.376;8.762;2023-09-30T11:36:05;18.40;99.90
23703;DHT22;12030;50.376;8.762;2023-09-30T11:38:32;18.40;99.90
23703;DHT22;12030;50.376;8.762;2023-09-30T11:41:03;18.30;99.90
23703;DHT22;12030;50.376;8.762;2023-09-30T11:43:31;18.40;99.90
23703;DHT22;12030;50.376;8.762;2023-09-30T11:46:11;18.50;99.90
23703;DHT22;12030;50.376;8.762;2023-09-30T11:48:37;18.60;99.90
23703;DHT22;12030;50.376;8.762;2023-09-30T11:51:03;18.60;99.90
23703;DHT22;12030;50.376;8.762;2023-09-30T11:53:35;18.70;99.90
23703;DHT22;12030;50.376;8.762;2023-09-30T11:56:01;18.70;99.90
23703;DHT22;12030;50.376;8.762;2023-09-30T11:58:32;18.70;99.90
23703;DHT22;12030;50.376;8.762;2023-09-30T12:00:58;18.70;99.90
23703;DHT22;12030;50.376;8.762;2023-09-30T12:03:25;18.70;99.90
23703;DHT22;12030;50.376;8.762;2023-09-30T12:05:55;18.80;99.90
23703;DHT22;12030;50.376;8.762;2023-09-30T12:08:22;18.80;99.90
23703;DHT22;12030;50.376;8.762;2023-09-30T12:10:48;18.90;99.90
23703;DHT22;12030;50.376;8.762;2023-09-30T12:13:15;19.00;99.90
23703;DHT22;12030;50.376;8.762;2023-09-30T12:15:41;19.00;99.90
23703;DHT22;12030;50.376;8.762;2023-09-30T12:18:07;19.10;99.90
23703;DHT22;12030;50.376;8.762;2023-09-30T12:20:33;19.10;99.90
23703;DHT22;12030;50.376;8.762;2023-09-30T12:22:58;19.10;99.90
23703;DHT22;12030;50.376;8.762;2023-09-30T12:25:24;19.30;99.90
23703;DHT22;12030;50.376;8.762;2023-09-30T12:27:50;19.30;99.90
23703;DHT22;12030;50.376;8.762;2023-09-30T12:30:16;19.30;99.90
23703;DHT22;12030;50.376;8.762;2023-09-30T12:32:45;19.30;99.90
23703;DHT22;12030;50.376;8.762;2023-09-30T12:35:11;19.30;99.90
23703;DHT22;12030;50.376;8.762;2023-09-30T12:37:37;19.30;99.90
23703;DHT22;12030;50.376;8.762;2023-09-30T12:40:05;19.30;99.90
23703;DHT22;12030;50.376;8.762;2023-09-30T12:42:32;19.40;99.90
23703;DHT22;12030;50.376;8.762;2023-09-30T12:45:00;19.50;99.90
23703;DHT22;12030;50.376;8.762;2023-09-30T12:47:26;19.50;99.90
23703;DHT22;12030;50.376;8.762;2023-09-30T12:49:52;19.60;99.90
23703;DHT22;12030;50.376;8.762;2023-09-30T12:52:19;19.60;99.90
23703;DHT22;12030;50.376;8.762;2023-09-30T12:54:45;19.70;99.90
23703;DHT22;12030;50.376;8.762;2023-09-30T12:57:10;19.70;99.90
23703;DHT22;12030;50.376;8.762;2023-09-30T12:59:39;19.70;99.90
23703;DHT22;12030;50.376;8.762;2023-09-30T13:02:04;19.70;99.90
23703;DHT22;12030;50.376;8.762;2023-09-30T13:04:31;19.70;99.90
23703;DHT22;12030;50.376;8.762;2023-09-30T13:06:56;19.80;99.90
23703;DHT22;12030;50.376;8.762;2023-09-30T13:09:22;19.60;99.10
23703;DHT22;12030;50.376;8.762;2023-09-30T13:11:48;19.80;98.80
23703;DHT22;12030;50.376;8.762;2023-09-30T13:14:14;19.80;96.50
23703;DHT22;12030;50.376;8.762;2023-09-30T13:16:39;20.00;96.50
23703;DHT22;12030;50.376;8.762;2023-09-30T13:19:05;20.20;97.30
23703;DHT22;12030;50.376;8.762;2023-09-30T13:21:31;20.40;96.20
23703;DHT22;12030;50.376;8.762;2023-09-30T13:23:56;20.50;96.30
23703;DHT22;12030;50.376;8.762;2023-09-30T13:26:22;20.60;94.00
23703;DHT22;12030;50.376;8.762;2023-09-30T13:28:47;20.60;93.80
23703;DHT22;12030;50.376;8.762;2023-09-30T13:31:13;20.60;93.00
23703;DHT22;12030;50.376;8.762;2023-09-30T13:33:38;20.70;92.70
23703;DHT22;12030;50.376;8.762;2023-09-30T13:36:04;20.80;92.60
23703;DHT22;12030;50.376;8.762;2023-09-30T13:38:30;20.80;91.80
23703;DHT22;12030;50.376;8.762;2023-09-30T13:40:56;20.80;91.80
23703;DHT22;12030;50.376;8.762;2023-09-30T13:43:21;20.80;90.70
23703;DHT22;12030;50.376;8.762;2023-09-30T13:45:47;20.90;91.80
23703;DHT22;12030;50.376;8.762;2023-09-30T13:48:13;21.00;91.90
23703;DHT22;12030;50.376;8.762;2023-09-30T13:50:39;21.00;90.10
23703;DHT22;12030;50.376;8.762;2023-09-30T13:53:05;21.00;90.70
23703;DHT22;12030;50.376;8.762;2023-09-30T13:55:30;20.70;86.40
23703;DHT22;12030;50.376;8.762;2023-09-30T13:57:56;20.70;88.80
23703;DHT22;12030;50.376;8.762;2023-09-30T14:00:21;20.80;87.30
23703;DHT22;12030;50.376;8.762;2023-09-30T14:02:47;20.80;88.00
23703;DHT22;12030;50.376;8.762;2023-09-30T14:05:13;20.80;87.90
23703;DHT22;12030;50.376;8.762;2023-09-30T14:07:39;20.90;88.60
23703;DHT22;12030;50.376;8.762;2023-09-30T14:10:08;21.00;87.50
23703;DHT22;12030;50.376;8.762;2023-09-30T14:12:35;21.10;87.80
23703;DHT22;12030;50.376;8.762;2023-09-30T14:15:01;21.20;87.70
23703;DHT22;12030;50.376;8.762;2023-09-30T14:17:27;21.10;89.90
23703;DHT22;12030;50.376;8.762;2023-09-30T14:19:52;21.20;90.60
23703;DHT22;12030;50.376;8.762;2023-09-30T14:22:17;21.10;90.20
23703;DHT22;12030;50.376;8.762;2023-09-30T14:24:43;21.10;91.30
23703;DHT22;12030;50.376;8.762;2023-09-30T14:27:09;21.10;89.00
23703;DHT22;12030;50.376;8.762;2023-09-30T14:29:34;21.10;91.40
23703;DHT22;12030;50.376;8.762;2023-09-30T14:32:00;21.00;90.80
23703;DHT22;12030;50.376;8.762;2023-09-30T14:34:25;20.90;91.10
23703;DHT22;12030;50.376;8.762;2023-09-30T14:36:51;20.90;90.30
23703;DHT22;12030;50.376;8.762;2023-09-30T14:39:17;20.80;90.20
23703;DHT22;12030;50.376;8.762;2023-09-30T14:41:44;20.60;89.00
23703;DHT22;12030;50.376;8.762;2023-09-30T14:44:09;20.40;88.60
23703;DHT22;12030;50.376;8.762;2023-09-30T14:46:40;20.30;89.50
23703;DHT22;12030;50.376;8.762;2023-09-30T14:49:06;20.20;90.20
23703;DHT22;12030;50.376;8.762;2023-09-30T14:51:33;20.10;91.50
23703;DHT22;12030;50.376;8.762;2023-09-30T14:53:58;20.00;92.90
23703;DHT22;12030;50.376;8.762;2023-09-30T14:56:24;19.80;92.20
23703;DHT22;12030;50.376;8.762;2023-09-30T14:58:49;19.70;91.90
23703;DHT22;12030;50.376;8.762;2023-09-30T15:01:15;19.50;91.10
23703;DHT22;12030;50.376;8.762;2023-09-30T15:03:40;19.40;92.80
23703;DHT22;12030;50.376;8.762;2023-09-30T15:06:07;19.30;92.90
23703;DHT22;12030;50.376;8.762;2023-09-30T15:08:33;19.20;92.60
23703;DHT22;12030;50.376;8.762;2023-09-30T15:11:01;19.00;93.70
23703;DHT22;12030;50.376;8.762;2023-09-30T15:13:28;18.90;94.90
23703;DHT22;12030;50.376;8.762;2023-09-30T15:15:54;18.70;95.50
23703;DHT22;12030;50.376;8.762;2023-09-30T15:18:19;18.70;96.30
23703;DHT22;12030;50.376;8.762;2023-09-30T15:20:45;18.50;95.20
23703;DHT22;12030;50.376;8.762;2023-09-30T15:23:12;18.50;96.70
23703;DHT22;12030;50.376;8.762;2023-09-30T15:25:41;18.40;98.40
23703;DHT22;12030;50.376;8.762;2023-09-30T15:28:08;18.40;99.90
23703;DHT22;12030;50.376;8.762;2023-09-30T15:30:34;18.30;99.90
23703;DHT22;12030;50.376;8.762;2023-09-30T15:32:59;18.20;99.90
23703;DHT22;12030;50.376;8.762;2023-09-30T15:35:27;18.10;99.90
23703;DHT22;12030;50.376;8.762;2023-09-30T15:37:52;18.10;99.90
23703;DHT22;12030;50.376;8.762;2023-09-30T15:40:18;18.10;99.90
23703;DHT22;12030;50.376;8.762;2023-09-30T15:42:43;18.10;99.90
23703;DHT22;12030;50.376;8.762;2023-09-30T15:45:10;18.10;99.90
23703;DHT22;12030;50.376;8.762;2023-09-30T15:47:37;18.10;99.90